createdAt,value
2022-07-25T04:36:52.402Z,94952.00
2022-07-25T04:41:54.375Z,94959.00
2022-07-25T04:46:56.362Z,94949.00
2022-07-25T04:51:58.397Z,94942.00
2022-07-25T04:57:00.407Z,94948.00
2022-07-25T05:02:02.659Z,94936.00
2022-07-25T05:07:04.683Z,94922.00
2022-07-25T05:12:07.123Z,94922.00
2022-07-25T05:17:09.257Z,94906.00
2022-07-25T05:22:11.200Z,94916.00
2022-07-25T05:27:13.404Z,94902.00
2022-07-25T05:32:15.755Z,94930.00
2022-07-25T05:37:17.722Z,94916.00
2022-07-25T05:42:19.750Z,94927.00
2022-07-25T05:47:21.864Z,94930.00
2022-07-25T05:52:23.884Z,94908.00
2022-07-25T05:57:25.866Z,94920.00
2022-07-25T06:02:27.864Z,94905.00
2022-07-25T06:07:29.915Z,94920.00
2022-07-25T06:12:33.635Z,94905.00
2022-07-25T06:17:38.556Z,94914.00
2022-07-25T06:22:40.533Z,94917.00
2022-07-25T06:27:42.902Z,94917.00
2022-07-25T06:32:44.883Z,94909.00
2022-07-25T06:37:47.158Z,94894.00
2022-07-25T06:42:49.132Z,94878.00
2022-07-25T06:47:51.400Z,94886.00
2022-07-25T06:52:55.024Z,94876.00
2022-07-25T06:57:56.918Z,94865.00
2022-07-25T07:03:02.279Z,94900.00
2022-07-25T07:08:04.753Z,94884.00
2022-07-25T07:13:15.324Z,94891.00
2022-07-25T07:18:21.564Z,94891.00
2022-07-25T07:23:24.643Z,94871.00
2022-07-25T07:28:27.046Z,94873.00
2022-07-25T07:33:29.109Z,94884.00
2022-07-25T07:38:31.093Z,94863.00
2022-07-25T07:43:33.066Z,94861.00
2022-07-25T07:48:36.051Z,94865.00
2022-07-25T07:53:56.583Z,94855.00
2022-07-25T07:58:58.566Z,94870.00
2022-07-25T08:04:00.521Z,94861.00
2022-07-25T08:09:02.479Z,94876.00
2022-07-25T08:14:05.482Z,94876.00
2022-07-25T08:19:07.786Z,94866.00
2022-07-25T08:24:10.323Z,94879.00
2022-07-25T08:29:22.959Z,94872.00
2022-07-25T08:34:29.703Z,94864.00
2022-07-25T08:39:31.825Z,94885.00
2022-07-25T08:44:37.009Z,94871.00
2022-07-25T08:49:38.995Z,94865.00
2022-07-25T08:54:41.691Z,94856.00
2022-07-25T08:59:44.447Z,94847.00
2022-07-25T09:04:46.423Z,94850.00
2022-07-25T09:09:48.385Z,94831.00
2022-07-25T09:14:50.305Z,94829.00
2022-07-25T09:19:56.565Z,94841.00
2022-07-25T09:24:58.512Z,94835.00
2022-07-25T09:30:00.496Z,94831.00
2022-07-25T09:35:02.408Z,94841.00
2022-07-25T09:40:14.634Z,94838.00
2022-07-25T09:45:16.568Z,94835.00
2022-07-25T09:50:20.622Z,94821.00
2022-07-25T09:55:24.143Z,94806.00
2022-07-25T10:00:29.088Z,94818.00
2022-07-25T10:05:42.804Z,94810.00
2022-07-25T10:10:44.839Z,94805.00
2022-07-25T10:15:52.691Z,94813.00
2022-07-25T10:21:25.633Z,94800.00
2022-07-25T10:26:29.780Z,94790.00
2022-07-25T10:32:06.434Z,94783.00
2022-07-25T10:37:29.292Z,94789.00
2022-07-25T10:42:34.376Z,94772.00
2022-07-25T10:47:40.000Z,94757.00
2022-07-25T10:52:42.710Z,94766.00
2022-07-25T10:58:07.836Z,94754.00
2022-07-25T11:03:06.982Z,94737.00
2022-07-25T11:08:21.827Z,94727.00
2022-07-25T11:13:24.554Z,94710.00
2022-07-25T11:18:40.059Z,94715.00
2022-07-25T11:23:42.008Z,94712.00
2022-07-25T11:28:50.173Z,94707.00
2022-07-25T11:33:52.406Z,94707.00
2022-07-25T11:38:54.547Z,94704.00
2022-07-25T11:43:57.348Z,94707.00
2022-07-25T11:49:06.330Z,94703.00
2022-07-25T11:54:10.753Z,94709.00
2022-07-25T11:59:13.295Z,94678.00
2022-07-25T12:04:19.898Z,94712.00
2022-07-25T12:09:22.688Z,94695.00
2022-07-25T12:14:24.631Z,94660.00
2022-07-25T12:19:26.591Z,94662.00
2022-07-25T12:24:28.515Z,94673.00
2022-07-25T12:29:30.500Z,94671.00
2022-07-25T12:34:32.466Z,94657.00
2022-07-25T12:39:34.429Z,94660.00
2022-07-25T12:44:36.663Z,94645.00
2022-07-25T12:49:38.674Z,94648.00
2022-07-25T12:54:40.878Z,94630.00
2022-07-25T12:59:43.159Z,94634.00
2022-07-25T13:04:45.300Z,94619.00
2022-07-25T13:09:48.283Z,94607.00
2022-07-25T13:14:51.361Z,94600.00
2022-07-25T13:19:53.500Z,94609.00
2022-07-25T13:24:55.874Z,94611.00
2022-07-25T13:29:58.059Z,94605.00
2022-07-25T13:35:00.076Z,94595.00
2022-07-25T13:40:02.296Z,94607.00
2022-07-25T13:45:05.996Z,94545.00
2022-07-25T13:50:08.421Z,94566.00
2022-07-25T13:55:11.330Z,94557.00
2022-07-25T14:00:14.121Z,94571.00
2022-07-25T14:05:16.277Z,94564.00
2022-07-25T14:10:18.804Z,94583.00
2022-07-25T14:15:21.177Z,94558.00
2022-07-25T14:20:23.401Z,94545.00
2022-07-25T14:25:25.633Z,94557.00
2022-07-25T14:30:27.812Z,94549.00
2022-07-25T14:35:32.503Z,94542.00
2022-07-25T14:40:35.100Z,94521.00
2022-07-25T14:45:37.231Z,94536.00
2022-07-25T14:50:39.228Z,94506.00
2022-07-25T14:55:41.172Z,94519.00
2022-07-25T15:00:43.877Z,94501.00
2022-07-25T15:05:46.086Z,94524.00
2022-07-25T15:10:48.251Z,94486.00
2022-07-25T15:15:50.198Z,94468.00
2022-07-25T15:20:52.381Z,94478.00
2022-07-25T15:26:01.592Z,94506.00
2022-07-25T15:31:06.445Z,94508.00
2022-07-25T15:36:08.977Z,94464.00
2022-07-25T15:41:11.866Z,94466.00
2022-07-25T15:46:14.618Z,94444.00
2022-07-25T15:51:17.049Z,94463.00
2022-07-25T15:56:19.115Z,94427.00
2022-07-25T16:01:21.172Z,94420.00
2022-07-25T16:06:23.471Z,94460.00
2022-07-25T16:11:25.499Z,94412.00
2022-07-25T16:16:27.596Z,94433.00
2022-07-25T16:21:30.523Z,94427.00
2022-07-25T16:26:32.511Z,94434.00
2022-07-25T16:31:34.546Z,94432.00
2022-07-25T16:36:36.585Z,94425.00
2022-07-25T16:41:38.640Z,94440.00
2022-07-25T16:46:41.400Z,94442.00
2022-07-25T16:51:44.889Z,94452.00
2022-07-25T16:56:50.236Z,94438.00
2022-07-25T17:01:55.577Z,94450.00
2022-07-25T17:06:57.570Z,94451.00
2022-07-25T17:11:59.569Z,94457.00
2022-07-25T17:17:01.581Z,94466.00
2022-07-25T17:22:03.534Z,94476.00
2022-07-25T17:27:07.504Z,94484.00
2022-07-25T17:32:10.267Z,94466.00
2022-07-25T17:37:12.291Z,94470.00
2022-07-25T17:42:20.578Z,94493.00
2022-07-25T17:47:23.335Z,94514.00
2022-07-25T17:52:25.288Z,94527.00
2022-07-25T17:57:27.746Z,94534.00
2022-07-25T18:02:29.941Z,94585.00
2022-07-25T18:07:32.175Z,94588.00
2022-07-25T18:12:34.189Z,94559.00
2022-07-25T18:17:36.108Z,94516.00
2022-07-25T18:22:43.708Z,94538.00
2022-07-25T18:27:47.182Z,94558.00
2022-07-25T18:32:49.193Z,94533.00
2022-07-25T18:37:51.192Z,94525.00
2022-07-25T18:42:53.384Z,94520.00
2022-07-25T18:47:55.342Z,94517.00
2022-07-25T18:52:57.697Z,94531.00
2022-07-25T18:58:00.005Z,94522.00
2022-07-25T19:03:02.020Z,94540.00
2022-07-25T19:08:05.607Z,94536.00
2022-07-25T19:13:08.318Z,94542.00
2022-07-25T19:18:10.262Z,94553.00
2022-07-25T19:23:12.271Z,94557.00
2022-07-25T19:28:14.320Z,94568.00
2022-07-25T19:33:16.472Z,94557.00
2022-07-25T19:38:18.483Z,94553.00
2022-07-25T19:43:20.468Z,94550.00
2022-07-25T19:48:25.041Z,94548.00
2022-07-25T19:53:28.719Z,94555.00
2022-07-25T19:58:34.105Z,94522.00
